sensor_id;sensor_type;location;lat;lon;timestamp;pressure;altitude;pressure_sealevel;temperature;humidity
29907;BME280;16776;50.958;10.994;2024-01-30T00:01:52;99808.81;;;4.46;81.01
29907;BME280;16776;50.958;10.994;2024-01-30T00:04:19;99809.69;;;4.46;81.14
29907;BME280;16776;50.958;10.994;2024-01-30T00:06:46;99813.13;;;4.50;81.24
29907;BME280;16776;50.958;10.994;2024-01-30T00:09:12;99814.81;;;4.49;80.65
29907;BME280;16776;50.958;10.994;2024-01-30T00:11:39;99814.00;;;4.52;81.49
29907;BME280;16776;50.958;10.994;2024-01-30T00:14:09;99776.28;;;4.33;81.54
29907;BME280;16776;50.958;10.994;2024-01-30T00:16:35;99804.59;;;4.49;81.22
29907;BME280;16776;50.958;10.994;2024-01-30T00:19:02;99817.53;;;4.58;82.03
29907;BME280;16776;50.958;10.994;2024-01-30T00:21:29;99813.28;;;4.59;81.17
29907;BME280;16776;50.958;10.994;2024-01-30T00:23:56;99806.50;;;4.61;81.76
29907;BME280;16776;50.958;10.994;2024-01-30T00:26:23;99815.88;;;4.62;81.80
29907;BME280;16776;50.958;10.994;2024-01-30T00:28:50;99810.75;;;4.62;81.40
29907;BME280;16776;50.958;10.994;2024-01-30T00:31:16;99814.22;;;4.64;81.08
29907;BME280;16776;50.958;10.994;2024-01-30T00:33:44;99815.06;;;4.64;82.11
29907;BME280;16776;50.958;10.994;2024-01-30T00:36:11;99804.00;;;4.64;81.51
29907;BME280;16776;50.958;10.994;2024-01-30T00:38:38;99798.06;;;4.66;81.53
29907;BME280;16776;50.958;10.994;2024-01-30T00:41:07;99808.38;;;4.71;81.45
29907;BME280;16776;50.958;10.994;2024-01-30T00:43:34;99802.38;;;4.69;82.28
29907;BME280;16776;50.958;10.994;2024-01-30T00:46:01;99797.31;;;4.71;82.27
29907;BME280;16776;50.958;10.994;2024-01-30T00:48:28;99802.44;;;4.72;81.64
29907;BME280;16776;50.958;10.994;2024-01-30T00:50:55;99781.94;;;4.66;82.07
29907;BME280;16776;50.958;10.994;2024-01-30T00:53:21;99793.09;;;4.74;82.23
29907;BME280;16776;50.958;10.994;2024-01-30T00:55:48;99800.75;;;4.74;81.71
29907;BME280;16776;50.958;10.994;2024-01-30T00:58:16;99795.72;;;4.77;81.63
29907;BME280;16776;50.958;10.994;2024-01-30T01:00:41;99792.25;;;4.75;82.04
29907;BME280;16776;50.958;10.994;2024-01-30T01:03:08;99795.72;;;4.77;81.82
29907;BME280;16776;50.958;10.994;2024-01-30T01:05:35;99788.91;;;4.78;81.84
29907;BME280;16776;50.958;10.994;2024-01-30T01:08:01;99792.31;;;4.78;82.41
29907;BME280;16776;50.958;10.994;2024-01-30T01:10:28;99800.84;;;4.80;82.36
29907;BME280;16776;50.958;10.994;2024-01-30T01:12:54;99791.53;;;4.82;81.88
29907;BME280;16776;50.958;10.994;2024-01-30T01:15:22;99795.81;;;4.86;82.39
29907;BME280;16776;50.958;10.994;2024-01-30T01:17:49;99795.00;;;4.87;81.31
29907;BME280;16776;50.958;10.994;2024-01-30T01:20:15;99762.34;;;4.65;81.69
29907;BME280;16776;50.958;10.994;2024-01-30T01:22:42;99795.03;;;4.89;81.46
29907;BME280;16776;50.958;10.994;2024-01-30T01:25:09;99788.19;;;4.88;81.73
29907;BME280;16776;50.958;10.994;2024-01-30T01:27:35;99790.75;;;4.88;81.90
29907;BME280;16776;50.958;10.994;2024-01-30T01:30:07;99795.84;;;4.88;82.09
29907;BME280;16776;50.958;10.994;2024-01-30T01:32:36;99787.34;;;4.87;82.10
29907;BME280;16776;50.958;10.994;2024-01-30T01:35:03;99783.00;;;4.82;81.46
29907;BME280;16776;50.958;10.994;2024-01-30T01:37:30;99784.69;;;4.81;81.92
29907;BME280;16776;50.958;10.994;2024-01-30T01:39:57;99778.72;;;4.78;81.62
29907;BME280;16776;50.958;10.994;2024-01-30T01:42:23;99776.97;;;4.77;82.14
29907;BME280;16776;50.958;10.994;2024-01-30T01:44:50;99779.47;;;4.74;81.64
29907;BME280;16776;50.958;10.994;2024-01-30T01:47:17;99776.94;;;4.72;82.42
29907;BME280;16776;50.958;10.994;2024-01-30T01:49:45;99782.03;;;4.72;82.07
29907;BME280;16776;50.958;10.994;2024-01-30T01:52:12;99782.75;;;4.66;81.63
29907;BME280;16776;50.958;10.994;2024-01-30T01:54:38;99791.28;;;4.65;81.82
29907;BME280;16776;50.958;10.994;2024-01-30T01:57:05;99778.50;;;4.64;81.75
29907;BME280;16776;50.958;10.994;2024-01-30T01:59:32;99787.84;;;4.63;81.89
29907;BME280;16776;50.958;10.994;2024-01-30T02:01:58;99781.84;;;4.61;82.33
29907;BME280;16776;50.958;10.994;2024-01-30T02:04:27;99769.09;;;4.60;82.30
29907;BME280;16776;50.958;10.994;2024-01-30T02:06:55;99781.00;;;4.62;82.19
29907;BME280;16776;50.958;10.994;2024-01-30T02:09:21;99780.13;;;4.59;82.59
29907;BME280;16776;50.958;10.994;2024-01-30T02:11:48;99776.69;;;4.57;81.85
29907;BME280;16776;50.958;10.994;2024-01-30T02:14:15;99772.41;;;4.56;82.16
29907;BME280;16776;50.958;10.994;2024-01-30T02:16:41;99770.69;;;4.55;82.57
29907;BME280;16776;50.958;10.994;2024-01-30T02:19:08;99768.13;;;4.55;82.26
29907;BME280;16776;50.958;10.994;2024-01-30T02:21:36;99759.63;;;4.53;82.67
29907;BME280;16776;50.958;10.994;2024-01-30T02:24:03;99760.47;;;4.53;82.33
29907;BME280;16776;50.958;10.994;2024-01-30T02:26:31;99763.00;;;4.52;81.91
29907;BME280;16776;50.958;10.994;2024-01-30T02:28:57;99763.81;;;4.51;82.64
29907;BME280;16776;50.958;10.994;2024-01-30T02:31:24;99755.31;;;4.50;82.43
29907;BME280;16776;50.958;10.994;2024-01-30T02:33:51;99756.97;;;4.48;82.07
29907;BME280;16776;50.958;10.994;2024-01-30T02:36:18;99752.72;;;4.49;82.06
29907;BME280;16776;50.958;10.994;2024-01-30T02:38:45;99751.06;;;4.51;81.87
29907;BME280;16776;50.958;10.994;2024-01-30T02:41:12;99755.28;;;4.49;82.14
29907;BME280;16776;50.958;10.994;2024-01-30T02:43:39;99746.81;;;4.50;82.63
29907;BME280;16776;50.958;10.994;2024-01-30T02:46:06;99748.47;;;4.48;82.87
29907;BME280;16776;50.958;10.994;2024-01-30T02:48:32;99754.44;;;4.47;83.01
29907;BME280;16776;50.958;10.994;2024-01-30T02:50:59;99744.22;;;4.47;82.22
29907;BME280;16776;50.958;10.994;2024-01-30T02:53:25;99743.31;;;4.45;82.01
29907;BME280;16776;50.958;10.994;2024-01-30T02:55:53;99744.22;;;4.47;82.41
29907;BME280;16776;50.958;10.994;2024-01-30T02:58:20;99733.09;;;4.43;82.21
29907;BME280;16776;50.958;10.994;2024-01-30T03:00:46;99736.47;;;4.41;82.70
29907;BME280;16776;50.958;10.994;2024-01-30T03:03:13;99738.16;;;4.42;82.69
29907;BME280;16776;50.958;10.994;2024-01-30T03:05:39;99727.94;;;4.39;82.62
29907;BME280;16776;50.958;10.994;2024-01-30T03:08:09;99730.44;;;4.37;82.38
29907;BME280;16776;50.958;10.994;2024-01-30T03:10:36;99726.19;;;4.36;82.73
29907;BME280;16776;50.958;10.994;2024-01-30T03:13:04;99731.31;;;4.38;83.05
29907;BME280;16776;50.958;10.994;2024-01-30T03:15:30;99725.31;;;4.36;81.67
29907;BME280;16776;50.958;10.994;2024-01-30T03:18:01;99732.09;;;4.34;82.81
29907;BME280;16776;50.958;10.994;2024-01-30T03:20:29;99727.00;;;4.34;82.89
29907;BME280;16776;50.958;10.994;2024-01-30T03:22:55;99728.66;;;4.32;83.04
29907;BME280;16776;50.958;10.994;2024-01-30T03:25:23;99722.66;;;4.30;82.00
29907;BME280;16776;50.958;10.994;2024-01-30T03:27:50;99732.00;;;4.28;82.24
29907;BME280;16776;50.958;10.994;2024-01-30T03:30:18;99715.03;;;4.28;82.74
29907;BME280;16776;50.958;10.994;2024-01-30T03:32:44;99720.03;;;4.23;82.15
29907;BME280;16776;50.958;10.994;2024-01-30T03:35:11;99712.34;;;4.20;82.39
29907;BME280;16776;50.958;10.994;2024-01-30T03:37:37;99716.56;;;4.18;82.40
29907;BME280;16776;50.958;10.994;2024-01-30T03:40:05;99711.44;;;4.18;81.88
29907;BME280;16776;50.958;10.994;2024-01-30T03:42:32;99711.38;;;4.15;82.29
29907;BME280;16776;50.958;10.994;2024-01-30T03:45:05;99706.28;;;4.15;82.12
29907;BME280;16776;50.958;10.994;2024-01-30T03:47:33;99713.97;;;4.17;82.61
29907;BME280;16776;50.958;10.994;2024-01-30T03:49:59;99706.28;;;4.14;82.83
29907;BME280;16776;50.958;10.994;2024-01-30T03:52:26;99707.13;;;4.13;82.22
29907;BME280;16776;50.958;10.994;2024-01-30T03:54:52;99700.25;;;4.10;82.36
29907;BME280;16776;50.958;10.994;2024-01-30T03:57:19;99706.19;;;4.09;82.21
29907;BME280;16776;50.958;10.994;2024-01-30T03:59:46;99706.19;;;4.08;83.12
29907;BME280;16776;50.958;10.994;2024-01-30T04:02:13;99702.78;;;4.07;83.02
29907;BME280;16776;50.958;10.994;2024-01-30T04:04:40;99705.34;;;4.09;82.26
29907;BME280;16776;50.958;10.994;2024-01-30T04:07:07;99708.75;;;4.08;82.82
29907;BME280;16776;50.958;10.994;2024-01-30T04:09:34;99704.44;;;4.05;82.66
29907;BME280;16776;50.958;10.994;2024-01-30T04:12:00;99705.28;;;4.06;82.59
29907;BME280;16776;50.958;10.994;2024-01-30T04:14:28;99710.38;;;4.06;83.15
29907;BME280;16776;50.958;10.994;2024-01-30T04:16:54;99699.06;;;3.90;82.68
29907;BME280;16776;50.958;10.994;2024-01-30T04:19:21;99711.19;;;4.03;82.00
29907;BME280;16776;50.958;10.994;2024-01-30T04:21:49;99712.09;;;4.05;82.76
29907;BME280;16776;50.958;10.994;2024-01-30T04:24:15;99716.28;;;4.02;82.60
29907;BME280;16776;50.958;10.994;2024-01-30T04:26:43;99720.53;;;4.01;82.55
29907;BME280;16776;50.958;10.994;2024-01-30T04:29:13;99724.72;;;3.99;82.35
29907;BME280;16776;50.958;10.994;2024-01-30T04:31:40;99723.00;;;3.98;82.81
29907;BME280;16776;50.958;10.994;2024-01-30T04:34:06;99717.91;;;3.98;81.96
29907;BME280;16776;50.958;10.994;2024-01-30T04:36:33;99716.19;;;3.96;82.67
29907;BME280;16776;50.958;10.994;2024-01-30T04:39:01;99713.63;;;3.97;82.02
29907;BME280;16776;50.958;10.994;2024-01-30T04:41:29;99709.31;;;3.93;82.75
29907;BME280;16776;50.958;10.994;2024-01-30T04:43:57;99708.47;;;3.93;81.58
29907;BME280;16776;50.958;10.994;2024-01-30T04:46:24;99710.97;;;3.91;82.55
29907;BME280;16776;50.958;10.994;2024-01-30T04:48:50;99707.50;;;3.86;81.95
29907;BME280;16776;50.958;10.994;2024-01-30T04:51:17;99715.13;;;3.84;82.64
29907;BME280;16776;50.958;10.994;2024-01-30T04:53:43;99715.06;;;3.81;82.30
29907;BME280;16776;50.958;10.994;2024-01-30T04:56:11;99709.13;;;3.81;82.17
29907;BME280;16776;50.958;10.994;2024-01-30T04:58:38;99709.91;;;3.78;82.08
29907;BME280;16776;50.958;10.994;2024-01-30T05:01:05;99703.94;;;3.78;82.52
29907;BME280;16776;50.958;10.994;2024-01-30T05:03:33;99704.78;;;3.77;82.52
29907;BME280;16776;50.958;10.994;2024-01-30T05:06:00;99707.28;;;3.74;81.68
29907;BME280;16776;50.958;10.994;2024-01-30T05:08:26;99697.94;;;3.73;82.87
29907;BME280;16776;50.958;10.994;2024-01-30T05:10:53;99700.47;;;3.73;81.60
29907;BME280;16776;50.958;10.994;2024-01-30T05:13:21;99697.09;;;3.74;82.66
29907;BME280;16776;50.958;10.994;2024-01-30T05:15:47;99695.34;;;3.70;82.10
29907;BME280;16776;50.958;10.994;2024-01-30T05:18:14;99699.56;;;3.69;81.80
29907;BME280;16776;50.958;10.994;2024-01-30T05:20:41;99700.44;;;3.70;83.24
29907;BME280;16776;50.958;10.994;2024-01-30T05:23:07;99711.59;;;3.76;84.47
29907;BME280;16776;50.958;10.994;2024-01-30T05:25:34;99702.47;;;3.89;86.56
29907;BME280;16776;50.958;10.994;2024-01-30T05:28:00;99697.69;;;4.07;84.30
29907;BME280;16776;50.958;10.994;2024-01-30T05:30:28;99708.97;;;4.21;84.14
29907;BME280;16776;50.958;10.994;2024-01-30T05:32:55;99701.38;;;4.26;83.07
29907;BME280;16776;50.958;10.994;2024-01-30T05:35:21;99702.28;;;4.28;83.41
29907;BME280;16776;50.958;10.994;2024-01-30T05:37:48;99704.81;;;4.30;82.53
29907;BME280;16776;50.958;10.994;2024-01-30T05:40:15;99701.41;;;4.29;82.22
29907;BME280;16776;50.958;10.994;2024-01-30T05:42:42;99709.03;;;4.26;82.53
29907;BME280;16776;50.958;10.994;2024-01-30T05:45:08;99708.09;;;4.22;82.31
29907;BME280;16776;50.958;10.994;2024-01-30T05:47:36;99712.34;;;4.22;82.25
29907;BME280;16776;50.958;10.994;2024-01-30T05:50:04;99713.13;;;4.18;81.71
29907;BME280;16776;50.958;10.994;2024-01-30T05:52:30;99712.22;;;4.13;82.51
29907;BME280;16776;50.958;10.994;2024-01-30T05:54:57;99705.34;;;4.09;81.33
29907;BME280;16776;50.958;10.994;2024-01-30T05:57:24;99709.56;;;4.07;81.63
29907;BME280;16776;50.958;10.994;2024-01-30T05:59:50;99712.03;;;4.02;81.27
29907;BME280;16776;50.958;10.994;2024-01-30T06:02:17;99710.22;;;3.97;82.07
29907;BME280;16776;50.958;10.994;2024-01-30T06:04:45;99705.13;;;3.95;81.06
29907;BME280;16776;50.958;10.994;2024-01-30T06:07:12;99707.53;;;3.88;81.97
29907;BME280;16776;50.958;10.994;2024-01-30T06:09:38;99714.25;;;3.82;81.19
29907;BME280;16776;50.958;10.994;2024-01-30T06:12:06;99710.78;;;3.79;82.25
29907;BME280;16776;50.958;10.994;2024-01-30T06:14:33;99704.78;;;3.75;82.24
29907;BME280;16776;50.958;10.994;2024-01-30T06:16:59;99706.38;;;3.70;82.22
29907;BME280;16776;50.958;10.994;2024-01-30T06:19:26;99706.31;;;3.67;82.09
29907;BME280;16776;50.958;10.994;2024-01-30T06:21:54;99698.63;;;3.66;81.86
29907;BME280;16776;50.958;10.994;2024-01-30T06:24:20;99701.13;;;3.61;82.29
29907;BME280;16776;50.958;10.994;2024-01-30T06:26:47;99700.22;;;3.58;82.00
29907;BME280;16776;50.958;10.994;2024-01-30T06:29:13;99695.91;;;3.55;81.44
29907;BME280;16776;50.958;10.994;2024-01-30T06:31:41;99694.16;;;3.53;82.27
29907;BME280;16776;50.958;10.994;2024-01-30T06:34:08;99690.75;;;3.51;82.05
29907;BME280;16776;50.958;10.994;2024-01-30T06:36:36;99700.03;;;3.49;81.46
29907;BME280;16776;50.958;10.994;2024-01-30T06:39:04;99697.53;;;3.50;81.60
29907;BME280;16776;50.958;10.994;2024-01-30T06:41:31;99684.72;;;3.47;82.02
29907;BME280;16776;50.958;10.994;2024-01-30T06:43:58;99692.31;;;3.45;82.48
29907;BME280;16776;50.958;10.994;2024-01-30T06:46:24;99692.34;;;3.47;82.03
29907;BME280;16776;50.958;10.994;2024-01-30T06:48:51;99689.81;;;3.47;81.54
29907;BME280;16776;50.958;10.994;2024-01-30T06:51:17;99697.44;;;3.47;82.68
29907;BME280;16776;50.958;10.994;2024-01-30T06:53:44;99701.69;;;3.47;81.44
29907;BME280;16776;50.958;10.994;2024-01-30T06:56:12;99696.59;;;3.47;81.61
29907;BME280;16776;50.958;10.994;2024-01-30T06:58:39;99699.09;;;3.45;82.61
29907;BME280;16776;50.958;10.994;2024-01-30T07:01:06;99693.19;;;3.44;82.63
29907;BME280;16776;50.958;10.994;2024-01-30T07:03:32;99699.97;;;3.45;82.70
29907;BME280;16776;50.958;10.994;2024-01-30T07:05:59;99698.28;;;3.46;82.56
29907;BME280;16776;50.958;10.994;2024-01-30T07:08:26;99699.13;;;3.47;82.53
29907;BME280;16776;50.958;10.994;2024-01-30T07:10:52;99697.44;;;3.47;82.11
29907;BME280;16776;50.958;10.994;2024-01-30T07:13:21;99703.47;;;3.51;82.38
29907;BME280;16776;50.958;10.994;2024-01-30T07:15:48;99704.34;;;3.51;81.72
29907;BME280;16776;50.958;10.994;2024-01-30T07:18:15;99696.69;;;3.53;82.53
29907;BME280;16776;50.958;10.994;2024-01-30T07:20:41;99705.22;;;3.55;82.87
29907;BME280;16776;50.958;10.994;2024-01-30T07:23:11;99703.59;;;3.57;82.22
29907;BME280;16776;50.958;10.994;2024-01-30T07:25:39;99705.31;;;3.58;83.15
29907;BME280;16776;50.958;10.994;2024-01-30T07:28:06;99707.91;;;3.61;82.35
29907;BME280;16776;50.958;10.994;2024-01-30T07:30:35;99704.56;;;3.63;83.31
29907;BME280;16776;50.958;10.994;2024-01-30T07:33:02;99700.31;;;3.64;82.04
29907;BME280;16776;50.958;10.994;2024-01-30T07:35:28;99708.03;;;3.68;82.00
29907;BME280;16776;50.958;10.994;2024-01-30T07:37:55;99714.84;;;3.71;82.52
29907;BME280;16776;50.958;10.994;2024-01-30T07:40:22;99714.06;;;3.73;82.79
29907;BME280;16776;50.958;10.994;2024-01-30T07:42:49;99711.59;;;3.76;83.13
29907;BME280;16776;50.958;10.994;2024-01-30T07:45:16;99709.13;;;3.81;82.46
29907;BME280;16776;50.958;10.994;2024-01-30T07:47:48;99706.69;;;3.87;83.57
29907;BME280;16776;50.958;10.994;2024-01-30T07:50:15;99709.25;;;3.89;83.27
29907;BME280;16776;50.958;10.994;2024-01-30T07:52:42;99707.63;;;3.94;83.83
29907;BME280;16776;50.958;10.994;2024-01-30T07:55:08;99708.56;;;3.99;82.97
29907;BME280;16776;50.958;10.994;2024-01-30T07:57:35;99709.53;;;4.05;83.12
29907;BME280;16776;50.958;10.994;2024-01-30T08:00:02;99713.94;;;4.14;83.26
29907;BME280;16776;50.958;10.994;2024-01-30T08:02:29;99720.00;;;4.20;83.38
29907;BME280;16776;50.958;10.994;2024-01-30T08:04:57;99706.50;;;4.28;83.24
29907;BME280;16776;50.958;10.994;2024-01-30T08:07:23;99705.69;;;4.30;83.94
29907;BME280;16776;50.958;10.994;2024-01-30T08:09:50;99713.41;;;4.35;83.50
29907;BME280;16776;50.958;10.994;2024-01-30T08:12:16;99716.03;;;4.39;83.91
29907;BME280;16776;50.958;10.994;2024-01-30T08:14:43;99710.09;;;4.42;84.00
29907;BME280;16776;50.958;10.994;2024-01-30T08:17:09;99711.88;;;4.46;83.16
29907;BME280;16776;50.958;10.994;2024-01-30T08:19:36;99700.88;;;4.50;83.62
29907;BME280;16776;50.958;10.994;2024-01-30T08:22:04;99706.97;;;4.58;84.05
29907;BME280;16776;50.958;10.994;2024-01-30T08:24:30;99713.81;;;4.62;84.19
29907;BME280;16776;50.958;10.994;2024-01-30T08:26:57;99702.03;;;4.70;84.26
29907;BME280;16776;50.958;10.994;2024-01-30T08:29:24;99703.88;;;4.80;84.11
29907;BME280;16776;50.958;10.994;2024-01-30T08:31:51;99704.00;;;4.89;84.54
29907;BME280;16776;50.958;10.994;2024-01-30T08:34:17;99706.69;;;4.98;84.74
29907;BME280;16776;50.958;10.994;2024-01-30T08:36:44;99704.22;;;5.06;83.86
29907;BME280;16776;50.958;10.994;2024-01-30T08:39:12;99695.81;;;5.15;83.96
29907;BME280;16776;50.958;10.994;2024-01-30T08:41:38;99702.69;;;5.19;84.19
29907;BME280;16776;50.958;10.994;2024-01-30T08:44:05;99696.81;;;5.26;84.04
29907;BME280;16776;50.958;10.994;2024-01-30T08:46:31;99690.94;;;5.30;84.04
29907;BME280;16776;50.958;10.994;2024-01-30T08:48:59;99690.13;;;5.34;84.38
29907;BME280;16776;50.958;10.994;2024-01-30T08:51:25;99695.28;;;5.38;84.42
29907;BME280;16776;50.958;10.994;2024-01-30T08:53:52;99692.78;;;5.43;84.51
29907;BME280;16776;50.958;10.994;2024-01-30T08:56:20;99686.03;;;5.51;84.50
29907;BME280;16776;50.958;10.994;2024-01-30T08:58:47;99687.81;;;5.55;84.72
29907;BME280;16776;50.958;10.994;2024-01-30T09:01:14;99689.53;;;5.59;84.46
29907;BME280;16776;50.958;10.994;2024-01-30T09:03:40;99690.41;;;5.63;84.58
29907;BME280;16776;50.958;10.994;2024-01-30T09:06:09;99653.66;;;5.49;84.38
29907;BME280;16776;50.958;10.994;2024-01-30T09:08:35;99680.28;;;5.69;84.68
29907;BME280;16776;50.958;10.994;2024-01-30T09:11:08;99681.16;;;5.72;84.77
29907;BME280;16776;50.958;10.994;2024-01-30T09:13:37;99679.50;;;5.77;84.90
29907;BME280;16776;50.958;10.994;2024-01-30T09:16:04;99680.38;;;5.79;85.25
29907;BME280;16776;50.958;10.994;2024-01-30T09:18:31;99681.25;;;5.84;85.28
29907;BME280;16776;50.958;10.994;2024-01-30T09:20:58;99679.59;;;5.90;84.90
29907;BME280;16776;50.958;10.994;2024-01-30T09:23:26;99673.69;;;5.97;85.38
29907;BME280;16776;50.958;10.994;2024-01-30T09:25:53;99675.47;;;6.04;85.54
29907;BME280;16776;50.958;10.994;2024-01-30T09:28:19;99667.00;;;6.11;85.94
29907;BME280;16776;50.958;10.994;2024-01-30T09:30:49;99680.75;;;6.23;86.10
29907;BME280;16776;50.958;10.994;2024-01-30T09:33:16;99678.25;;;6.31;85.77
29907;BME280;16776;50.958;10.994;2024-01-30T09:35:42;99680.88;;;6.43;85.72
29907;BME280;16776;50.958;10.994;2024-01-30T09:38:09;99636.41;;;6.27;86.38
29907;BME280;16776;50.958;10.994;2024-01-30T09:40:36;99681.03;;;6.64;86.18
29907;BME280;16776;50.958;10.994;2024-01-30T09:43:03;99681.97;;;6.76;87.27
29907;BME280;16776;50.958;10.994;2024-01-30T09:45:31;99683.78;;;6.90;86.85
29907;BME280;16776;50.958;10.994;2024-01-30T09:48:00;99687.22;;;7.00;86.67
29907;BME280;16776;50.958;10.994;2024-01-30T09:50:28;99683.81;;;7.10;86.61
29907;BME280;16776;50.958;10.994;2024-01-30T09:52:55;99683.91;;;7.22;86.40
29907;BME280;16776;50.958;10.994;2024-01-30T09:55:23;99696.75;;;7.34;86.73
29907;BME280;16776;50.958;10.994;2024-01-30T09:57:50;99685.66;;;7.43;86.77
29907;BME280;16776;50.958;10.994;2024-01-30T10:00:17;99697.63;;;7.55;87.08
29907;BME280;16776;50.958;10.994;2024-01-30T10:02:44;99689.97;;;7.64;86.94
29907;BME280;16776;50.958;10.994;2024-01-30T10:05:15;99684.88;;;7.74;86.70
29907;BME280;16776;50.958;10.994;2024-01-30T10:07:52;99682.34;;;7.85;87.31
29907;BME280;16776;50.958;10.994;2024-01-30T10:10:18;99683.19;;;7.85;87.16
29907;BME280;16776;50.958;10.994;2024-01-30T10:12:45;99672.09;;;7.91;86.51
29907;BME280;16776;50.958;10.994;2024-01-30T10:15:13;99673.78;;;7.95;86.95
29907;BME280;16776;50.958;10.994;2024-01-30T10:17:40;99672.94;;;7.98;87.80
29907;BME280;16776;50.958;10.994;2024-01-30T10:20:08;99672.06;;;8.00;87.45
29907;BME280;16776;50.958;10.994;2024-01-30T10:22:36;99678.91;;;8.03;86.77
29907;BME280;16776;50.958;10.994;2024-01-30T10:25:03;99669.53;;;8.03;86.74
29907;BME280;16776;50.958;10.994;2024-01-30T10:27:30;99675.50;;;8.07;86.84
29907;BME280;16776;50.958;10.994;2024-01-30T10:29:58;99670.38;;;8.08;87.56
29907;BME280;16776;50.958;10.994;2024-01-30T10:32:25;99666.09;;;8.01;87.06
29907;BME280;16776;50.958;10.994;2024-01-30T10:34:52;99671.22;;;8.09;87.19
29907;BME280;16776;50.958;10.994;2024-01-30T10:37:19;99678.94;;;8.10;86.74
29907;BME280;16776;50.958;10.994;2024-01-30T10:39:50;99676.38;;;8.15;87.16
29907;BME280;16776;50.958;10.994;2024-01-30T10:42:20;99673.81;;;8.13;86.87
29907;BME280;16776;50.958;10.994;2024-01-30T10:44:56;99671.28;;;8.18;87.91
29907;BME280;16776;50.958;10.994;2024-01-30T10:47:26;99671.28;;;8.18;87.46
29907;BME280;16776;50.958;10.994;2024-01-30T10:49:56;99662.69;;;8.10;87.37
29907;BME280;16776;50.958;10.994;2024-01-30T10:52:24;99667.81;;;8.10;88.19
29907;BME280;16776;50.958;10.994;2024-01-30T10:54:54;99663.56;;;8.13;88.16
29907;BME280;16776;50.958;10.994;2024-01-30T10:57:22;99674.69;;;8.23;88.78
29907;BME280;16776;50.958;10.994;2024-01-30T10:59:49;99674.69;;;8.24;88.04
29907;BME280;16776;50.958;10.994;2024-01-30T11:02:18;99677.25;;;8.29;88.12
29907;BME280;16776;50.958;10.994;2024-01-30T11:04:45;99669.53;;;8.34;88.91
29907;BME280;16776;50.958;10.994;2024-01-30T11:07:16;99670.38;;;8.42;88.84
29907;BME280;16776;50.958;10.994;2024-01-30T11:09:49;99673.81;;;8.50;89.19
29907;BME280;16776;50.958;10.994;2024-01-30T11:12:18;99672.94;;;8.54;87.96
29907;BME280;16776;50.958;10.994;2024-01-30T11:14:47;99671.25;;;8.50;88.97
29907;BME280;16776;50.958;10.994;2024-01-30T11:17:14;99665.22;;;8.57;88.22
29907;BME280;16776;50.958;10.994;2024-01-30T11:19:41;99652.41;;;8.55;88.88
29907;BME280;16776;50.958;10.994;2024-01-30T11:22:08;99666.91;;;8.69;88.20
29907;BME280;16776;50.958;10.994;2024-01-30T11:24:39;99662.59;;;8.80;88.42
29907;BME280;16776;50.958;10.994;2024-01-30T11:27:08;99649.75;;;8.77;88.97
29907;BME280;16776;50.958;10.994;2024-01-30T11:29:36;99665.13;;;8.90;88.49
29907;BME280;16776;50.958;10.994;2024-01-30T11:32:03;99662.53;;;8.96;88.42
29907;BME280;16776;50.958;10.994;2024-01-30T11:34:32;99653.97;;;9.00;88.72
29907;BME280;16776;50.958;10.994;2024-01-30T11:37:03;99666.72;;;9.17;88.58
29907;BME280;16776;50.958;10.994;2024-01-30T11:39:30;99658.13;;;9.23;88.75
29907;BME280;16776;50.958;10.994;2024-01-30T11:41:57;99657.25;;;9.33;88.57
29907;BME280;16776;50.958;10.994;2024-01-30T11:44:24;99655.50;;;9.42;88.64
29907;BME280;16776;50.958;10.994;2024-01-30T11:46:53;99653.69;;;9.54;88.89
29907;BME280;16776;50.958;10.994;2024-01-30T11:49:20;99638.22;;;9.60;88.89
29907;BME280;16776;50.958;10.994;2024-01-30T11:51:47;99648.47;;;9.72;88.28
29907;BME280;16776;50.958;10.994;2024-01-30T11:54:14;99640.66;;;9.82;88.20
29907;BME280;16776;50.958;10.994;2024-01-30T11:56:41;99637.13;;;9.93;88.21
29907;BME280;16776;50.958;10.994;2024-01-30T11:59:08;99635.34;;;10.01;88.36
29907;BME280;16776;50.958;10.994;2024-01-30T12:01:35;99624.16;;;10.09;87.82
29907;BME280;16776;50.958;10.994;2024-01-30T12:04:04;99624.88;;;10.22;87.96
29907;BME280;16776;50.958;10.994;2024-01-30T12:06:33;99619.69;;;10.25;87.61
29907;BME280;16776;50.958;10.994;2024-01-30T12:09:01;99613.63;;;10.31;87.60
29907;BME280;16776;50.958;10.994;2024-01-30T12:11:29;99613.63;;;10.32;87.51
29907;BME280;16776;50.958;10.994;2024-01-30T12:13:56;99611.03;;;10.32;87.25
29907;BME280;16776;50.958;10.994;2024-01-30T12:16:23;99605.91;;;10.32;87.56
29907;BME280;16776;50.958;10.994;2024-01-30T12:18:59;99601.53;;;10.42;87.65
29907;BME280;16776;50.958;10.994;2024-01-30T12:21:27;99596.44;;;10.36;87.48
29907;BME280;16776;50.958;10.994;2024-01-30T12:23:54;99593.88;;;10.34;87.23
29907;BME280;16776;50.958;10.994;2024-01-30T12:26:20;99594.72;;;10.33;87.28
29907;BME280;16776;50.958;10.994;2024-01-30T12:28:48;99596.44;;;10.34;87.63
29907;BME280;16776;50.958;10.994;2024-01-30T12:31:15;99593.88;;;10.34;88.19
29907;BME280;16776;50.958;10.994;2024-01-30T12:33:42;99596.38;;;10.37;87.53
29907;BME280;16776;50.958;10.994;2024-01-30T12:36:08;99592.09;;;10.39;87.86
29907;BME280;16776;50.958;10.994;2024-01-30T12:38:36;99596.31;;;10.46;87.82
29907;BME280;16776;50.958;10.994;2024-01-30T12:41:06;99592.00;;;10.48;87.34
29907;BME280;16776;50.958;10.994;2024-01-30T12:43:33;99595.41;;;10.50;87.26
29907;BME280;16776;50.958;10.994;2024-01-30T12:45:59;99591.94;;;10.51;86.98
29907;BME280;16776;50.958;10.994;2024-01-30T12:48:26;99588.53;;;10.51;86.78
29907;BME280;16776;50.958;10.994;2024-01-30T12:50:54;99595.41;;;10.50;86.56
29907;BME280;16776;50.958;10.994;2024-01-30T12:53:21;99596.31;;;10.46;86.63
29907;BME280;16776;50.958;10.994;2024-01-30T12:55:49;99581.72;;;10.45;86.66
29907;BME280;16776;50.958;10.994;2024-01-30T12:58:15;99580.94;;;10.40;86.76
29907;BME280;16776;50.958;10.994;2024-01-30T13:00:42;99585.22;;;10.38;86.49